Aeroporto :
LOGIN :

Iscrizione | Disclaimer

   EN    FR    IT 

 










Sommario :    VFR   VFR Marginale   IFR   IFR Intensivo   IFR Molto Intensivo
Visibilità : 
Base nubi : 
>= 8 km
>= 3000ft
5 / 8 km
1000 / 3000 ft
1500m / 5 km
500 / 1000 ft
800 / 1500m
200 / 500 ft
< 800m
< 200 ft
Simboli :   Temporali  Nebbia  Neve Forte  Precipitazioni Forti  Vento > 20 kt
SIGMETs :   Varie  Temporali  Ghiacco  Turbolenza  Onda orograficha  Ceneri Vulcaniche






- Altitudine del aeroporto : 219 ft
- Codice IATA : DNR


LFRD - Dinard

ULTIMO METAR :
  • 092000Z AUTO 33009KT 9999 OVC036 08/04 Q1027

METARs OBSOLETI :
  • 091930Z AUTO 34008KT 9999 BKN035 08/03 Q1027
  • 091900Z AUTO 33012KT 9999 FEW042 09/03 Q1026
  • 091830Z AUTO 34013KT 9999 SCT039 09/03 Q1026
  • 091800Z AUTO 34014KT 9999 FEW043 09/03 Q1025 NOSIG
  • 091730Z AUTO 33015KT 9999 FEW041 09/03 Q1025 NOSIG

TAF TAF LFRD
Valido dal 09 a 18 ore il 10 a 18 ore UTC


091700Z 0918/1018 33015G25KT 9999 SCT030
BECMG 0918/0920 33010KT
BECMG 0920/0922 VRB05KT
TEMPO 1000/1004 3000 BR
BECMG 1003/1005 18010KT
BECMG 1008/1010 18015G25KT
TEMPO 1010/1018 5000 RA BKN012
BECMG 1012/1014 19020G35KT
ATIS : +33 2 99 16 81 50



MetMap, La meteo Aeronautica in un colpo d'occhio ! - Copyright ORBIFLY Dicembre 2007 - Disclaimer

ORBIFLY MET'MAP TEAM :

Programmazione e sviluppo : Alexandra Zaïnal
Concezione : Baudouin d'Aumeries
Aiuto per la programmazione : Marc-Olivier Méhu
Supporto tecnico e logistico : Manuel Goepfert
Aiuto per la traduzione : Arnaldo La Scala

Contatto : metmap@orbifly.com




FONTI E CREDITI :

   NOAA